createdAt,value
2023-04-13T00:00:55.786Z,12.20
2023-04-13T00:03:24.277Z,12.10
2023-04-13T00:05:53.797Z,12.10
2023-04-13T00:08:23.022Z,12.10
2023-04-13T00:10:51.436Z,12.10
2023-04-13T00:13:19.715Z,12.10
2023-04-13T00:15:47.726Z,12.00
2023-04-13T00:18:17.136Z,12.00
2023-04-13T00:20:46.571Z,12.00
2023-04-13T00:23:14.562Z,12.00
2023-04-13T00:25:42.665Z,11.90
2023-04-13T00:28:10.620Z,11.90
2023-04-13T00:30:38.744Z,11.90
2023-04-13T00:33:06.870Z,11.90
2023-04-13T00:35:36.371Z,12.00
2023-04-13T00:38:04.510Z,11.90
2023-04-13T00:40:32.760Z,11.90
2023-04-13T00:43:02.341Z,11.80
2023-04-13T00:45:31.185Z,11.70
2023-04-13T00:48:00.407Z,11.60
2023-04-13T00:50:28.578Z,11.50
2023-04-13T00:52:58.217Z,11.50
2023-04-13T00:55:27.722Z,11.40
2023-04-13T00:57:55.799Z,11.40
2023-04-13T01:00:25.649Z,11.40
2023-04-13T01:02:54.944Z,11.30
2023-04-13T01:05:25.500Z,11.30
2023-04-13T01:08:08.955Z,11.30
2023-04-13T01:10:44.022Z,11.20
2023-04-13T01:13:20.547Z,11.20
2023-04-13T01:15:56.150Z,11.20
2023-04-13T01:18:25.399Z,11.30
2023-04-13T01:20:55.074Z,11.30
2023-04-13T01:23:32.209Z,11.30
2023-04-13T01:26:04.144Z,11.30
2023-04-13T01:28:35.295Z,11.20
2023-04-13T01:31:05.792Z,11.20
2023-04-13T01:33:34.489Z,11.20
2023-04-13T01:36:03.219Z,11.20
2023-04-13T01:38:31.264Z,11.10
2023-04-13T01:40:59.291Z,11.10
2023-04-13T01:43:28.711Z,11.10
2023-04-13T01:46:04.136Z,11.10
2023-04-13T01:48:38.521Z,11.10
2023-04-13T01:51:11.416Z,11.10
2023-04-13T01:53:43.741Z,11.10
2023-04-13T01:56:13.907Z,11.10
2023-04-13T01:58:42.714Z,11.10
2023-04-13T02:01:12.829Z,11.00
2023-04-13T02:03:43.276Z,11.10
2023-04-13T02:06:12.029Z,11.10
2023-04-13T02:08:40.294Z,11.20
2023-04-13T02:11:08.869Z,11.20
2023-04-13T02:13:36.906Z,11.20
2023-04-13T02:16:06.715Z,11.20
2023-04-13T02:18:36.154Z,11.20
2023-04-13T02:21:09.179Z,11.20
2023-04-13T02:23:38.097Z,11.20
2023-04-13T02:26:08.353Z,11.20
2023-04-13T02:28:36.388Z,11.20
2023-04-13T02:31:05.829Z,11.20
2023-04-13T02:33:36.451Z,11.10
2023-04-13T02:36:05.441Z,11.10
2023-04-13T02:38:34.149Z,11.10
2023-04-13T02:41:02.595Z,11.00
2023-04-13T02:43:30.787Z,11.00
2023-04-13T02:45:59.562Z,10.90
2023-04-13T02:48:28.330Z,10.90
2023-04-13T02:50:57.698Z,10.90
2023-04-13T02:53:25.986Z,10.80
2023-04-13T02:55:55.398Z,10.70
2023-04-13T02:58:23.816Z,10.70
2023-04-13T03:00:51.973Z,10.60
2023-04-13T03:03:20.679Z,10.60
2023-04-13T03:05:50.320Z,10.50
2023-04-13T03:08:19.823Z,10.50
2023-04-13T03:10:47.780Z,10.40
2023-04-13T03:13:16.030Z,10.40
2023-04-13T03:15:44.022Z,10.40
2023-04-13T03:18:12.035Z,10.30
2023-04-13T03:20:40.043Z,10.30
2023-04-13T03:23:07.989Z,10.30
2023-04-13T03:25:37.329Z,10.30
2023-04-13T03:28:05.580Z,10.30
2023-04-13T03:30:33.638Z,10.30
2023-04-13T03:33:02.448Z,10.30
2023-04-13T03:35:30.608Z,10.30
2023-04-13T03:37:58.615Z,10.30
2023-04-13T03:40:26.610Z,10.40
2023-04-13T03:42:55.920Z,10.40
2023-04-13T03:45:23.915Z,10.40
2023-04-13T03:47:52.333Z,10.40
2023-04-13T03:50:20.999Z,10.40
2023-04-13T03:52:49.053Z,10.40
2023-04-13T03:55:18.241Z,10.40
2023-04-13T03:57:46.444Z,10.40
2023-04-13T04:00:17.252Z,10.40
2023-04-13T04:02:45.617Z,10.40
2023-04-13T04:05:13.892Z,10.40
2023-04-13T04:07:41.887Z,10.30
2023-04-13T04:10:10.679Z,10.30
2023-04-13T04:12:38.661Z,10.30
2023-04-13T04:15:07.809Z,10.30
2023-04-13T04:17:39.386Z,10.30
2023-04-13T04:20:10.641Z,10.40
2023-04-13T04:22:38.796Z,10.40
2023-04-13T04:25:07.599Z,10.40
2023-04-13T04:27:38.166Z,10.40
2023-04-13T04:30:08.830Z,10.40
2023-04-13T04:32:38.237Z,10.40
2023-04-13T04:35:07.242Z,10.40
2023-04-13T04:37:37.706Z,10.40
2023-04-13T04:40:09.277Z,10.40
2023-04-13T04:42:38.231Z,10.40
2023-04-13T04:45:07.176Z,10.40
2023-04-13T04:47:42.006Z,10.40
2023-04-13T04:50:12.919Z,10.40
2023-04-13T04:52:41.547Z,10.40
2023-04-13T04:55:10.335Z,10.50
2023-04-13T04:57:38.350Z,10.50
2023-04-13T05:00:10.733Z,10.50
2023-04-13T05:02:38.817Z,10.50
2023-04-13T05:05:09.080Z,10.50
2023-04-13T05:07:38.842Z,10.50
2023-04-13T05:10:09.186Z,10.50
2023-04-13T05:12:37.756Z,10.50
2023-04-13T05:15:07.516Z,10.50
2023-04-13T05:17:36.356Z,10.50
2023-04-13T05:20:06.738Z,10.50
2023-04-13T05:22:34.917Z,10.50
2023-04-13T05:25:04.682Z,10.50
2023-04-13T05:27:32.664Z,10.60
2023-04-13T05:30:00.659Z,10.60
2023-04-13T05:32:28.779Z,10.70
2023-04-13T05:34:56.836Z,10.70
2023-04-13T05:37:25.002Z,10.80
2023-04-13T05:39:53.531Z,10.80
2023-04-13T05:42:24.033Z,10.80
2023-04-13T05:44:52.204Z,10.90
2023-04-13T05:47:22.766Z,10.90
2023-04-13T05:49:52.313Z,11.00
2023-04-13T05:52:21.349Z,11.10
2023-04-13T05:54:50.066Z,11.10
2023-04-13T05:57:20.898Z,11.10
2023-04-13T05:59:51.788Z,11.10
2023-04-13T06:02:20.709Z,11.10
2023-04-13T06:04:48.998Z,11.10
2023-04-13T06:07:17.785Z,11.20
2023-04-13T06:09:45.965Z,11.20
2023-04-13T06:12:15.719Z,11.20
2023-04-13T06:14:44.123Z,11.20
2023-04-13T06:17:13.520Z,11.20
2023-04-13T06:19:41.685Z,11.30
2023-04-13T06:22:09.748Z,11.30
2023-04-13T06:24:37.886Z,11.50
2023-04-13T06:27:05.918Z,11.50
2023-04-13T06:29:34.241Z,11.60
2023-04-13T06:32:02.308Z,11.60
2023-04-13T06:34:31.732Z,11.70
2023-04-13T06:36:59.676Z,11.70
2023-04-13T06:39:28.810Z,11.80
2023-04-13T06:41:57.740Z,11.80
2023-04-13T06:44:26.987Z,11.80
2023-04-13T06:46:55.306Z,11.80
2023-04-13T06:49:23.439Z,11.90
2023-04-13T06:51:52.760Z,12.00
2023-04-13T06:54:20.969Z,12.00
2023-04-13T06:56:48.962Z,12.10
2023-04-13T06:59:16.976Z,12.10
2023-04-13T07:01:45.036Z,12.10
2023-04-13T07:04:13.147Z,12.20
2023-04-13T07:06:41.529Z,12.20
2023-04-13T07:09:10.992Z,12.20
2023-04-13T07:11:38.985Z,12.30
2023-04-13T07:14:06.992Z,12.40
2023-04-13T07:16:35.143Z,12.40
2023-04-13T07:19:03.233Z,12.50
2023-04-13T07:21:31.923Z,12.50
2023-04-13T07:23:59.912Z,12.50
2023-04-13T07:26:29.329Z,12.50
2023-04-13T07:28:57.465Z,12.50
2023-04-13T07:31:25.540Z,12.60
2023-04-13T07:33:54.356Z,12.60
2023-04-13T07:36:23.474Z,12.60
2023-04-13T07:38:51.731Z,12.70
2023-04-13T07:41:22.472Z,12.70
2023-04-13T07:43:52.228Z,12.80
2023-04-13T07:46:26.345Z,12.80
2023-04-13T07:48:55.056Z,12.90
2023-04-13T07:51:23.470Z,12.90
2023-04-13T07:53:53.624Z,13.00
2023-04-13T07:56:22.618Z,13.10
2023-04-13T07:58:51.959Z,13.20
2023-04-13T08:01:21.435Z,13.30
2023-04-13T08:03:49.497Z,13.40
2023-04-13T08:06:20.936Z,13.50
2023-04-13T08:08:48.975Z,13.60
2023-04-13T08:11:17.232Z,13.70
2023-04-13T08:13:45.325Z,13.80
2023-04-13T08:16:14.663Z,13.80
2023-04-13T08:18:42.751Z,13.90
2023-04-13T08:21:12.099Z,13.90
2023-04-13T08:23:42.141Z,14.00
2023-04-13T08:26:18.024Z,14.00
2023-04-13T08:28:46.218Z,14.10
2023-04-13T08:31:17.375Z,14.00
2023-04-13T08:33:45.323Z,14.00
2023-04-13T08:36:13.303Z,14.00
2023-04-13T08:38:41.263Z,14.00
2023-04-13T08:41:11.237Z,14.10
2023-04-13T08:43:40.425Z,14.20
2023-04-13T08:46:08.726Z,14.40
2023-04-13T08:48:53.458Z,14.50
2023-04-13T08:51:23.778Z,14.70
2023-04-13T08:53:54.770Z,14.80
2023-04-13T08:56:30.923Z,14.90
2023-04-13T08:59:07.526Z,15.10
2023-04-13T09:01:38.690Z,15.10
2023-04-13T09:04:11.163Z,15.20
2023-04-13T09:06:41.943Z,15.20
2023-04-13T09:09:13.859Z,15.30
2023-04-13T09:11:42.213Z,15.30
2023-04-13T09:14:10.198Z,15.30
2023-04-13T09:16:43.729Z,15.30
2023-04-13T09:19:13.900Z,15.40
2023-04-13T09:21:43.288Z,15.40
2023-04-13T09:24:12.499Z,15.50
2023-04-13T09:26:44.712Z,15.60
2023-04-13T09:29:16.403Z,15.60
2023-04-13T09:31:45.871Z,15.60
2023-04-13T09:34:15.882Z,15.50
2023-04-13T09:36:54.113Z,15.60
2023-04-13T09:39:27.917Z,15.60
2023-04-13T09:41:56.688Z,15.70
2023-04-13T09:44:27.470Z,15.80
2023-04-13T09:46:59.510Z,15.90
2023-04-13T09:49:38.288Z,16.00
2023-04-13T09:52:07.453Z,16.10
2023-04-13T09:54:35.874Z,16.20
2023-04-13T09:57:04.888Z,16.40
2023-04-13T09:59:34.038Z,16.50
2023-04-13T10:02:05.284Z,16.50
2023-04-13T10:04:36.610Z,16.50
2023-04-13T10:07:06.768Z,16.50
2023-04-13T10:09:34.752Z,16.40
2023-04-13T10:12:03.406Z,16.30
2023-04-13T10:14:36.918Z,16.10
2023-04-13T10:17:19.597Z,16.00
2023-04-13T10:19:52.251Z,15.90
2023-04-13T10:22:22.829Z,15.80
2023-04-13T10:24:52.806Z,15.80
2023-04-13T10:27:22.620Z,15.80
2023-04-13T10:29:51.082Z,15.90
2023-04-13T10:32:23.422Z,16.00
2023-04-13T10:34:53.469Z,16.10
2023-04-13T10:37:23.393Z,16.20
2023-04-13T10:40:05.626Z,16.30
2023-04-13T10:42:51.837Z,16.40
2023-04-13T10:45:23.959Z,16.50
2023-04-13T10:47:52.923Z,16.60
2023-04-13T10:50:23.447Z,16.70
2023-04-13T10:53:03.034Z,16.90
2023-04-13T10:55:31.626Z,17.10
2023-04-13T10:58:01.163Z,17.20
2023-04-13T11:00:44.794Z,17.40
2023-04-13T11:03:16.775Z,17.40
2023-04-13T11:05:47.430Z,17.50
2023-04-13T11:08:20.894Z,17.60
2023-04-13T11:10:53.451Z,17.70
2023-04-13T11:13:22.218Z,17.70
2023-04-13T11:15:51.823Z,17.80
2023-04-13T11:18:26.679Z,17.90
2023-04-13T11:20:56.361Z,17.90
2023-04-13T11:23:24.725Z,18.00
2023-04-13T11:25:58.114Z,18.10
2023-04-13T11:28:36.709Z,18.00
2023-04-13T11:31:06.292Z,17.90
2023-04-13T11:33:34.592Z,17.90
2023-04-13T11:36:04.067Z,17.90
2023-04-13T11:38:32.617Z,18.00
2023-04-13T11:41:15.851Z,18.00
2023-04-13T11:43:48.395Z,18.10
2023-04-13T11:46:25.024Z,18.10
2023-04-13T11:48:54.016Z,18.10
2023-04-13T11:51:24.125Z,18.20
2023-04-13T11:53:53.100Z,18.30
2023-04-13T11:56:21.213Z,18.50
2023-04-13T11:58:53.095Z,18.60
2023-04-13T12:01:26.217Z,18.70
2023-04-13T12:04:13.937Z,18.90
2023-04-13T12:06:46.725Z,19.10
2023-04-13T12:09:17.776Z,19.10
2023-04-13T12:11:50.213Z,19.10
2023-04-13T12:19:27.648Z,18.80
2023-04-13T12:21:58.089Z,18.70
2023-04-13T12:24:37.760Z,18.60
2023-04-13T12:29:39.207Z,18.40
2023-04-13T12:32:14.291Z,18.50
2023-04-13T12:34:43.052Z,18.60
2023-04-13T12:37:12.516Z,18.60
2023-04-13T12:39:40.596Z,18.70
2023-04-13T12:42:08.682Z,18.80
2023-04-13T12:44:36.711Z,18.90
2023-04-13T12:47:06.215Z,18.90
2023-04-13T12:49:34.307Z,19.00
2023-04-13T12:52:02.296Z,18.90
2023-04-13T12:54:31.805Z,18.90
2023-04-13T12:57:00.333Z,18.80
2023-04-13T12:59:28.304Z,18.70
2023-04-13T13:01:56.298Z,18.80
2023-04-13T13:04:24.416Z,18.90
2023-04-13T13:06:52.467Z,19.00
2023-04-13T13:09:20.747Z,19.20
2023-04-13T13:11:50.221Z,19.20
2023-04-13T13:14:20.244Z,19.20
2023-04-13T13:16:50.026Z,19.30
2023-04-13T13:19:18.064Z,19.20
2023-04-13T13:21:46.022Z,19.20
2023-04-13T13:24:14.035Z,19.10
2023-04-13T13:27:05.837Z,19.10
2023-04-13T13:29:33.292Z,19.00
2023-04-13T13:32:01.426Z,19.10
2023-04-13T13:34:29.444Z,19.10
2023-04-13T13:36:57.757Z,19.20
2023-04-13T13:39:27.235Z,19.20
2023-04-13T13:41:55.240Z,19.20
2023-04-13T13:44:23.284Z,19.10
2023-04-13T13:46:52.691Z,18.90
2023-04-13T13:49:20.684Z,18.70
2023-04-13T13:51:48.859Z,18.60
2023-04-13T13:54:16.786Z,18.50
2023-04-13T13:56:44.760Z,18.40
2023-04-13T13:59:12.809Z,18.40
2023-04-13T14:01:40.942Z,18.30
2023-04-13T14:04:10.644Z,18.20
2023-04-13T14:06:38.616Z,18.30
2023-04-13T14:09:06.881Z,18.30
2023-04-13T14:11:36.160Z,18.40
2023-04-13T14:14:18.388Z,18.40
2023-04-13T14:16:49.577Z,18.40
2023-04-13T14:19:20.669Z,18.40
2023-04-13T14:21:50.549Z,18.60
2023-04-13T14:24:18.509Z,18.60
2023-04-13T14:26:46.476Z,18.60
2023-04-13T14:29:14.519Z,18.60
2023-04-13T14:31:42.719Z,18.50
2023-04-13T14:34:11.068Z,18.50
2023-04-13T14:36:40.436Z,18.50
2023-04-13T14:39:08.712Z,18.50
2023-04-13T14:41:36.955Z,18.40
2023-04-13T14:44:04.930Z,18.50
2023-04-13T14:46:32.974Z,18.50
2023-04-13T14:49:01.137Z,18.60
2023-04-13T14:51:29.914Z,18.70
2023-04-13T14:53:59.340Z,18.80
2023-04-13T14:56:27.451Z,19.00
2023-04-13T14:58:55.397Z,19.10
2023-04-13T15:01:24.816Z,19.10
2023-04-13T15:03:54.553Z,19.10
2023-04-13T15:06:22.742Z,19.00
2023-04-13T15:08:50.969Z,18.90
2023-04-13T15:11:20.279Z,18.80
2023-04-13T15:13:48.233Z,18.70
2023-04-13T15:16:16.404Z,18.60
2023-04-13T15:18:44.403Z,18.50
2023-04-13T15:21:12.385Z,18.50
2023-04-13T15:23:40.386Z,18.50
2023-04-13T15:26:08.353Z,18.50
2023-04-13T15:28:39.014Z,18.60
2023-04-13T15:31:06.972Z,18.60
2023-04-13T15:33:34.935Z,18.50
2023-04-13T15:36:03.166Z,18.50
2023-04-13T15:38:31.319Z,18.50
2023-04-13T15:40:59.287Z,18.50
2023-04-13T15:43:27.497Z,18.40
2023-04-13T15:45:56.920Z,18.30
2023-04-13T15:48:24.909Z,18.30
2023-04-13T15:50:59.103Z,18.20
2023-04-13T15:53:27.290Z,18.20
2023-04-13T15:55:55.392Z,18.20
2023-04-13T15:58:23.493Z,18.10
2023-04-13T16:01:03.582Z,18.10
2023-04-13T16:03:32.686Z,18.20
2023-04-13T16:06:01.396Z,18.20
2023-04-13T16:08:30.367Z,18.20
2023-04-13T16:10:58.412Z,18.20
2023-04-13T16:13:32.287Z,18.20
2023-04-13T16:16:14.449Z,18.20
2023-04-13T16:18:43.547Z,18.10
2023-04-13T16:21:12.464Z,18.20
2023-04-13T16:23:43.296Z,18.20
2023-04-13T16:26:14.403Z,18.20
2023-04-13T16:28:42.519Z,18.20
2023-04-13T16:31:12.150Z,18.10
2023-04-13T16:33:40.141Z,18.10
2023-04-13T16:36:08.969Z,18.00
2023-04-13T16:38:36.944Z,17.90
2023-04-13T16:41:04.938Z,17.90
2023-04-13T16:43:32.887Z,17.90
2023-04-13T16:46:01.043Z,17.80
2023-04-13T16:48:34.875Z,17.70
2023-04-13T16:51:05.057Z,17.60
2023-04-13T16:53:33.911Z,17.60
2023-04-13T16:56:02.852Z,17.50
2023-04-13T16:58:31.815Z,17.50
2023-04-13T17:01:00.713Z,17.60
2023-04-13T17:03:29.649Z,17.60
2023-04-13T17:05:59.989Z,17.80
2023-04-13T17:08:28.924Z,17.80
2023-04-13T17:10:58.712Z,17.90
2023-04-13T17:13:27.665Z,17.90
2023-04-13T17:15:56.464Z,17.80
2023-04-13T17:18:25.303Z,17.70
2023-04-13T17:20:58.488Z,17.60
2023-04-13T17:23:27.433Z,17.50
2023-04-13T17:25:57.008Z,17.40
2023-04-13T17:28:26.062Z,17.30
2023-04-13T17:30:54.986Z,17.20
2023-04-13T17:33:24.969Z,17.10
2023-04-13T17:35:55.381Z,17.10
2023-04-13T17:38:25.961Z,16.90
2023-04-13T17:40:54.863Z,16.80
2023-04-13T17:43:23.800Z,16.70
2023-04-13T17:45:52.858Z,16.50
2023-04-13T17:48:22.241Z,16.40
2023-04-13T17:50:51.837Z,16.30
2023-04-13T17:53:20.820Z,16.20
2023-04-13T17:55:51.201Z,16.10
2023-04-13T17:58:20.134Z,16.00
2023-04-13T18:00:49.189Z,15.90
2023-04-13T18:03:18.261Z,15.80
2023-04-13T18:05:47.538Z,15.70
2023-04-13T18:08:16.837Z,15.60
2023-04-13T18:10:46.322Z,15.50
2023-04-13T18:13:17.052Z,15.40
2023-04-13T18:15:48.310Z,15.40
2023-04-13T18:18:17.678Z,15.30
2023-04-13T18:20:46.771Z,15.20
2023-04-13T18:23:14.737Z,15.20
2023-04-13T18:25:42.704Z,15.10
2023-04-13T18:28:11.070Z,15.00
2023-04-13T18:30:40.454Z,14.90
2023-04-13T18:33:08.939Z,14.90
2023-04-13T18:35:41.658Z,14.80
2023-04-13T18:38:09.835Z,14.80
2023-04-13T18:40:37.986Z,14.70
2023-04-13T18:43:06.002Z,14.60
2023-04-13T18:45:34.035Z,14.60
2023-04-13T18:48:04.093Z,14.50
2023-04-13T18:50:32.076Z,14.40
2023-04-13T18:53:00.016Z,14.40
2023-04-13T18:55:29.417Z,14.40
2023-04-13T18:57:57.454Z,14.30
2023-04-13T19:00:25.835Z,14.30
2023-04-13T19:02:53.943Z,14.20
2023-04-13T19:05:23.854Z,14.20
2023-04-13T19:07:58.657Z,14.10
2023-04-13T19:10:27.982Z,14.10
2023-04-13T19:12:56.669Z,14.10
2023-04-13T19:15:24.976Z,14.00
2023-04-13T19:17:53.355Z,14.00
2023-04-13T19:20:25.198Z,14.00
2023-04-13T19:22:53.273Z,14.00
2023-04-13T19:25:21.430Z,14.00
2023-04-13T19:27:50.277Z,14.10
2023-04-13T19:30:19.915Z,14.10
2023-04-13T19:32:49.943Z,14.00
2023-04-13T19:35:18.351Z,14.00
2023-04-13T19:37:47.676Z,14.00
2023-04-13T19:40:15.724Z,14.00
2023-04-13T19:42:45.172Z,14.00
2023-04-13T19:45:16.500Z,14.00
2023-04-13T19:47:44.617Z,13.90
2023-04-13T19:50:14.084Z,13.90
2023-04-13T19:52:43.105Z,13.80
2023-04-13T19:55:12.454Z,13.70
2023-04-13T19:57:44.376Z,13.60
2023-04-13T20:00:19.130Z,13.60
2023-04-13T20:02:49.565Z,13.50
2023-04-13T20:05:19.451Z,13.50
2023-04-13T20:07:47.581Z,13.50
2023-04-13T20:10:17.413Z,13.50
2023-04-13T20:12:45.612Z,13.50
2023-04-13T20:15:13.592Z,13.40
2023-04-13T20:17:41.882Z,13.40
2023-04-13T20:20:10.877Z,13.30
2023-04-13T20:22:39.432Z,13.20
2023-04-13T20:25:09.172Z,13.10
2023-04-13T20:27:43.010Z,13.10
2023-04-13T20:30:11.882Z,13.10
2023-04-13T20:32:40.064Z,13.00
2023-04-13T20:35:09.149Z,13.00
2023-04-13T20:37:37.233Z,13.00
2023-04-13T20:40:07.100Z,13.00
2023-04-13T20:42:35.212Z,12.90
2023-04-13T20:45:05.993Z,12.90
2023-04-13T20:47:35.945Z,12.90
2023-04-13T20:50:04.829Z,12.80
2023-04-13T20:52:32.934Z,12.80
2023-04-13T20:55:00.952Z,12.70
2023-04-13T20:57:28.946Z,12.70
2023-04-13T20:59:56.994Z,12.60
2023-04-13T21:02:26.668Z,12.60
2023-04-13T21:04:56.536Z,12.50
2023-04-13T21:07:24.558Z,12.50
2023-04-13T21:09:52.763Z,12.50
2023-04-13T21:12:20.772Z,12.40
2023-04-13T21:14:49.205Z,12.40
2023-04-13T21:17:17.167Z,12.40
2023-04-13T21:19:46.507Z,12.30
2023-04-13T21:22:15.824Z,12.30
2023-04-13T21:24:43.916Z,12.30
2023-04-13T21:27:11.952Z,12.30
2023-04-13T21:29:39.971Z,12.30
2023-04-13T21:32:08.007Z,12.20
2023-04-13T21:34:36.073Z,12.20
2023-04-13T21:37:05.724Z,12.20
2023-04-13T21:39:34.899Z,12.20
2023-04-13T21:42:04.849Z,12.10
2023-04-13T21:44:32.979Z,12.00
2023-04-13T21:47:01.102Z,12.00
2023-04-13T21:49:29.378Z,12.00
2023-04-13T21:51:57.337Z,12.00
2023-04-13T21:54:26.698Z,11.90
2023-04-13T21:56:54.964Z,11.90
2023-04-13T21:59:30.499Z,11.90
2023-04-13T22:01:58.736Z,11.80
2023-04-13T22:04:26.978Z,11.80
2023-04-13T22:06:55.846Z,11.80
2023-04-13T22:09:23.904Z,11.70
2023-04-13T22:11:53.268Z,11.70
2023-04-13T22:14:24.049Z,11.70
2023-04-13T22:16:53.097Z,11.60
2023-04-13T22:19:21.132Z,11.60
2023-04-13T22:21:49.066Z,11.60
2023-04-13T22:24:17.097Z,11.60
2023-04-13T22:26:45.063Z,11.50
2023-04-13T22:29:14.443Z,11.60
2023-04-13T22:31:42.470Z,11.50
2023-04-13T22:34:10.493Z,11.50
2023-04-13T22:36:38.497Z,11.50
2023-04-13T22:39:06.785Z,11.40
2023-04-13T22:41:34.804Z,11.40
2023-04-13T22:44:02.762Z,11.40
2023-04-13T22:46:32.341Z,11.40
2023-04-13T22:49:00.475Z,11.40
2023-04-13T22:51:31.086Z,11.40
2023-04-13T22:54:00.245Z,11.40
2023-04-13T22:56:28.233Z,11.30
2023-04-13T22:58:56.192Z,11.40
2023-04-13T23:01:24.234Z,11.40
2023-04-13T23:03:53.883Z,11.30
2023-04-13T23:06:22.107Z,11.30
2023-04-13T23:08:50.188Z,11.30
2023-04-13T23:11:18.179Z,11.30
2023-04-13T23:13:46.694Z,11.30
2023-04-13T23:16:14.850Z,11.30
2023-04-13T23:18:42.860Z,11.30
2023-04-13T23:21:13.573Z,11.40
2023-04-13T23:23:41.551Z,11.30
2023-04-13T23:26:09.645Z,11.30
2023-04-13T23:28:37.653Z,11.30
2023-04-13T23:31:06.329Z,11.30
2023-04-13T23:33:34.741Z,11.30
2023-04-13T23:36:03.619Z,11.30
2023-04-13T23:38:33.837Z,11.30
2023-04-13T23:41:01.826Z,11.30
2023-04-13T23:43:30.077Z,11.40
2023-04-13T23:46:00.616Z,11.40
2023-04-13T23:48:28.644Z,11.40
2023-04-13T23:50:59.833Z,11.40
2023-04-13T23:53:27.823Z,11.40
2023-04-13T23:55:57.171Z,11.50
2023-04-13T23:58:25.164Z,11.50
